createdAt,value
2019-02-23T00:00:22.638Z,3.70
2019-02-23T00:03:26.926Z,3.60
2019-02-23T00:06:31.239Z,3.83
2019-02-23T00:09:35.856Z,3.40
2019-02-23T00:12:40.187Z,3.30
2019-02-23T00:15:44.583Z,3.97
2019-02-23T00:18:48.960Z,3.87
2019-02-23T00:21:53.312Z,3.37
2019-02-23T00:24:58.069Z,3.53
2019-02-23T00:28:02.463Z,4.00
2019-02-23T00:31:06.753Z,4.03
2019-02-23T00:34:11.064Z,3.70
2019-02-23T00:37:15.543Z,3.53
2019-02-23T00:40:20.363Z,3.67
2019-02-23T00:43:25.064Z,3.60
2019-02-23T00:46:29.418Z,3.57
2019-02-23T00:49:36.886Z,4.03
2019-02-23T00:52:41.191Z,3.73
2019-02-23T00:55:45.523Z,4.17
2019-02-23T00:58:49.815Z,3.67
2019-02-23T01:01:54.166Z,3.77
2019-02-23T01:04:58.489Z,3.60
2019-02-23T01:08:03.347Z,3.40
2019-02-23T01:11:07.676Z,3.47
2019-02-23T01:14:12.031Z,3.43
2019-02-23T01:17:16.373Z,3.80
2019-02-23T01:20:20.675Z,3.40
2019-02-23T01:23:25.451Z,3.40
2019-02-23T01:26:29.761Z,3.50
2019-02-23T01:29:34.055Z,3.63
2019-02-23T01:32:38.642Z,4.23
2019-02-23T01:35:42.932Z,3.50
2019-02-23T01:38:49.232Z,3.60
2019-02-23T01:41:53.551Z,3.50
2019-02-23T01:44:57.934Z,3.67
2019-02-23T01:48:02.293Z,3.70
2019-02-23T01:51:06.929Z,3.63
2019-02-23T01:54:11.250Z,3.80
2019-02-23T01:57:15.548Z,4.10
2019-02-23T02:00:20.188Z,3.70
2019-02-23T02:03:24.465Z,3.60
2019-02-23T02:06:28.784Z,3.60
2019-02-23T02:09:33.144Z,3.47
2019-02-23T02:12:38.885Z,3.60
2019-02-23T02:15:43.317Z,3.70
2019-02-23T02:18:47.648Z,3.33
2019-02-23T02:21:51.957Z,3.40
2019-02-23T02:24:56.264Z,3.60
2019-02-23T02:28:01.360Z,3.97
2019-02-23T02:31:05.696Z,3.70
2019-02-23T02:34:12.047Z,3.50
2019-02-23T02:37:16.392Z,4.23
2019-02-23T02:40:29.565Z,4.10
2019-02-23T02:43:33.974Z,3.33
2019-02-23T02:46:47.512Z,3.27
2019-02-23T02:49:52.120Z,3.57
2019-02-23T02:52:56.475Z,3.53
2019-02-23T02:56:00.852Z,3.73
2019-02-23T02:59:05.273Z,3.40
2019-02-23T03:02:09.603Z,3.23
2019-02-23T03:05:14.224Z,3.33
2019-02-23T03:08:18.516Z,3.27
2019-02-23T03:11:22.908Z,4.07
2019-02-23T03:14:27.211Z,3.47
2019-02-23T03:17:31.513Z,3.50
2019-02-23T03:20:37.275Z,3.77
2019-02-23T03:23:41.650Z,3.57
2019-02-23T03:26:46.010Z,3.60
2019-02-23T03:29:50.321Z,3.57
2019-02-23T03:32:54.952Z,3.30
2019-02-23T03:35:59.779Z,3.60
2019-02-23T03:39:04.742Z,3.40
2019-02-23T03:42:09.156Z,3.40
2019-02-23T03:45:13.460Z,3.53
2019-02-23T03:48:17.781Z,3.37
2019-02-23T03:51:22.407Z,3.20
2019-02-23T03:54:26.800Z,3.30
2019-02-23T03:57:31.179Z,3.20
2019-02-23T04:00:35.583Z,4.50
2019-02-23T04:03:40.273Z,3.30
2019-02-23T04:06:44.589Z,3.50
2019-02-23T04:09:48.920Z,3.57
2019-02-23T04:12:53.223Z,3.17
2019-02-23T04:15:57.612Z,3.20
2019-02-23T04:19:01.909Z,3.30
2019-02-23T04:22:06.213Z,3.70
2019-02-23T04:25:10.688Z,3.37
2019-02-23T04:28:16.627Z,3.53
2019-02-23T04:31:21.001Z,3.20
2019-02-23T04:34:25.666Z,3.20
2019-02-23T04:37:30.324Z,3.03
2019-02-23T04:40:34.681Z,3.30
2019-02-23T04:43:39.008Z,3.40
2019-02-23T04:46:44.006Z,3.20
2019-02-23T04:49:54.117Z,3.53
2019-02-23T04:52:58.830Z,3.80
2019-02-23T04:56:03.193Z,3.10
2019-02-23T04:59:07.520Z,3.67
2019-02-23T05:02:12.259Z,3.70
2019-02-23T05:05:16.577Z,4.20
2019-02-23T05:08:20.886Z,3.63
2019-02-23T05:11:25.211Z,3.40
2019-02-23T05:14:29.696Z,3.07
2019-02-23T05:17:34.012Z,3.40
2019-02-23T05:20:38.330Z,3.53
2019-02-23T05:23:46.908Z,3.50
2019-02-23T05:26:51.590Z,3.53
2019-02-23T05:29:55.978Z,3.17
2019-02-23T05:33:00.811Z,3.33
2019-02-23T05:36:05.169Z,3.83
2019-02-23T05:39:09.542Z,3.33
2019-02-23T05:42:13.887Z,3.50
2019-02-23T05:45:18.862Z,3.17
2019-02-23T05:48:23.514Z,3.03
2019-02-23T05:51:38.286Z,2.90
2019-02-23T05:54:33.953Z,3.23
2019-02-23T05:57:38.378Z,3.00
2019-02-23T06:00:42.739Z,3.87
2019-02-23T06:03:47.072Z,2.87
2019-02-23T06:06:52.518Z,3.70
2019-02-23T06:09:56.802Z,3.17
2019-02-23T06:13:01.385Z,3.60
2019-02-23T06:16:05.705Z,3.20
2019-02-23T06:19:09.999Z,3.60
2019-02-23T06:22:14.328Z,3.27
2019-02-23T06:25:18.778Z,3.80
2019-02-23T06:28:23.197Z,3.57
2019-02-23T06:31:27.529Z,3.40
2019-02-23T06:34:31.901Z,3.33
2019-02-23T06:37:36.326Z,3.70
2019-02-23T06:40:40.700Z,3.63
2019-02-23T06:43:45.095Z,3.53
2019-02-23T06:46:49.979Z,3.10
2019-02-23T06:49:54.782Z,3.63
2019-02-23T06:52:59.587Z,3.50
2019-02-23T06:56:03.872Z,3.23
2019-02-23T06:59:08.202Z,3.33
2019-02-23T07:02:12.488Z,4.17
2019-02-23T07:05:16.850Z,3.73
2019-02-23T07:08:21.586Z,4.23
2019-02-23T07:11:25.979Z,3.93
2019-02-23T07:14:30.704Z,4.90
2019-02-23T07:17:35.106Z,4.70
2019-02-23T07:20:45.369Z,4.27
2019-02-23T07:23:49.723Z,4.50
2019-02-23T07:26:54.225Z,5.57
2019-02-23T07:29:58.709Z,4.70
2019-02-23T07:33:03.024Z,5.20
2019-02-23T07:36:07.841Z,4.20
2019-02-23T07:39:12.204Z,5.10
2019-02-23T07:42:16.586Z,4.97
2019-02-23T07:45:20.933Z,4.43
2019-02-23T07:48:25.408Z,5.20
2019-02-23T07:51:29.728Z,4.60
2019-02-23T07:54:34.041Z,7.13
2019-02-23T07:57:38.680Z,7.57
2019-02-23T08:00:42.873Z,5.77
2019-02-23T08:03:47.230Z,6.83
2019-02-23T08:06:51.639Z,6.87
2019-02-23T08:09:55.973Z,5.83
2019-02-23T08:13:00.288Z,5.73
2019-02-23T08:16:04.645Z,5.77
2019-02-23T08:19:10.487Z,5.77
2019-02-23T08:22:37.116Z,6.03
2019-02-23T08:25:35.336Z,4.67
2019-02-23T08:28:39.975Z,5.43
2019-02-23T08:31:46.905Z,4.90
2019-02-23T08:34:51.172Z,5.03
2019-02-23T08:37:55.895Z,5.20
2019-02-23T08:41:00.283Z,5.50
2019-02-23T08:44:05.072Z,6.50
2019-02-23T08:47:09.441Z,4.50
2019-02-23T08:50:14.583Z,7.63
2019-02-23T08:53:18.971Z,4.40
2019-02-23T08:56:23.252Z,6.77
2019-02-23T08:59:27.903Z,6.67
2019-02-23T09:02:32.579Z,6.43
2019-02-23T09:05:38.441Z,8.37
2019-02-23T09:08:43.094Z,7.00
2019-02-23T09:11:48.703Z,5.77
2019-02-23T09:14:53.604Z,7.10
2019-02-23T09:17:58.399Z,4.17
2019-02-23T09:21:03.039Z,6.03
2019-02-23T09:24:07.779Z,10.20
2019-02-23T09:27:13.730Z,6.50
2019-02-23T09:30:18.392Z,11.57
2019-02-23T09:33:23.165Z,9.93
2019-02-23T09:36:27.656Z,8.30
2019-02-23T09:39:32.254Z,11.63
2019-02-23T09:42:36.745Z,11.30
2019-02-23T09:45:41.142Z,8.33
2019-02-23T09:48:45.481Z,8.87
2019-02-23T09:51:49.807Z,7.20
2019-02-23T09:54:54.144Z,7.57
2019-02-23T09:57:58.583Z,15.97
2019-02-23T10:01:03.621Z,12.27
2019-02-23T10:04:10.327Z,7.87
2019-02-23T10:07:18.908Z,10.53
2019-02-23T10:10:23.583Z,8.37
2019-02-23T10:13:28.226Z,6.90
2019-02-23T10:16:32.556Z,8.77
2019-02-23T10:19:36.892Z,9.93
2019-02-23T10:22:41.338Z,8.53
2019-02-23T10:25:45.640Z,8.30
2019-02-23T10:28:51.149Z,6.70
2019-02-23T10:31:55.510Z,5.77
2019-02-23T10:34:59.823Z,7.13
2019-02-23T10:38:05.732Z,7.27
2019-02-23T10:41:10.094Z,5.97
2019-02-23T10:44:14.405Z,6.30
2019-02-23T10:47:18.794Z,5.53
2019-02-23T10:50:23.167Z,6.47
2019-02-23T10:53:32.728Z,6.47
2019-02-23T10:56:35.235Z,5.77
2019-02-23T10:59:39.636Z,4.70
2019-02-23T11:02:44.411Z,6.27
2019-02-23T11:05:49.331Z,6.23
2019-02-23T11:08:54.278Z,6.77
2019-02-23T11:11:58.573Z,6.23
2019-02-23T11:15:02.967Z,5.10
2019-02-23T11:18:07.736Z,5.03
2019-02-23T11:21:12.293Z,6.93
2019-02-23T11:24:18.337Z,5.57
2019-02-23T11:27:23.200Z,5.57
2019-02-23T11:30:27.485Z,4.83
2019-02-23T11:33:31.828Z,4.37
2019-02-23T11:36:36.462Z,5.43
2019-02-23T11:39:41.179Z,5.23
2019-02-23T11:42:45.840Z,3.43
2019-02-23T11:45:50.154Z,5.23
2019-02-23T11:48:54.750Z,8.37
2019-02-23T11:51:59.080Z,15.60
2019-02-23T11:55:03.696Z,10.17
2019-02-23T11:58:08.008Z,13.33
2019-02-23T12:01:12.266Z,11.43
2019-02-23T12:04:16.669Z,8.97
2019-02-23T12:07:21.064Z,5.33
2019-02-23T12:10:25.749Z,9.17
2019-02-23T12:13:31.435Z,8.93
2019-02-23T12:16:35.817Z,5.17
2019-02-23T12:19:42.189Z,7.57
2019-02-23T12:22:46.577Z,5.67
2019-02-23T12:25:51.218Z,9.13
2019-02-23T12:28:55.565Z,6.40
2019-02-23T12:32:00.273Z,4.37
2019-02-23T12:35:05.688Z,4.00
2019-02-23T12:38:10.411Z,8.53
2019-02-23T12:41:14.735Z,5.60
2019-02-23T12:44:19.132Z,5.67
2019-02-23T12:47:23.880Z,4.47
2019-02-23T12:50:29.363Z,4.80
2019-02-23T12:53:33.788Z,3.87
2019-02-23T12:56:38.128Z,4.50
2019-02-23T12:59:42.474Z,4.90
2019-02-23T13:02:46.825Z,3.67
2019-02-23T13:05:51.278Z,3.53
2019-02-23T13:09:33.917Z,4.30
2019-02-23T13:12:56.121Z,4.10
2019-02-23T13:16:18.568Z,5.03
2019-02-23T13:19:51.271Z,5.00
2019-02-23T13:23:19.119Z,3.63
2019-02-23T13:26:57.260Z,3.87
2019-02-23T13:30:20.346Z,2.90
2019-02-23T13:34:08.493Z,4.27
2019-02-23T13:37:37.377Z,3.63
2019-02-23T13:41:24.900Z,3.90
2019-02-23T13:45:28.388Z,3.37
2019-02-23T13:49:07.732Z,3.00
2019-02-23T13:53:05.361Z,4.33
2019-02-23T13:56:52.108Z,3.17
2019-02-23T14:00:53.007Z,3.03
2019-02-23T14:04:41.815Z,2.70
2019-02-23T14:08:36.521Z,4.53
2019-02-23T14:12:09.438Z,2.70
2019-02-23T14:15:41.760Z,3.03
2019-02-23T14:19:35.894Z,4.23
2019-02-23T14:23:05.293Z,3.10
2019-02-23T14:26:49.540Z,3.10
2019-02-23T14:30:41.895Z,2.30
2019-02-23T14:34:29.044Z,3.20
2019-02-23T14:38:29.011Z,2.90
2019-02-23T14:42:13.524Z,3.27
2019-02-23T14:45:51.157Z,2.80
2019-02-23T14:49:51.942Z,2.50
2019-02-23T14:53:39.968Z,2.53
2019-02-23T14:57:21.169Z,2.50
2019-02-23T15:00:52.162Z,2.90
2019-02-23T15:04:29.924Z,2.30
2019-02-23T15:07:51.609Z,2.10
2019-02-23T15:11:37.134Z,2.70
2019-02-23T15:15:19.800Z,1.80
2019-02-23T15:19:17.495Z,2.30
2019-02-23T15:22:48.564Z,3.00
2019-02-23T15:26:18.511Z,1.83
2019-02-23T15:30:02.808Z,2.30
2019-02-23T15:33:46.639Z,2.20
2019-02-23T15:37:30.815Z,2.27
2019-02-23T15:41:21.651Z,2.40
2019-02-23T15:45:02.203Z,1.93
2019-02-23T15:48:49.423Z,2.00
2019-02-23T15:51:53.850Z,1.93
2019-02-23T15:54:58.206Z,2.20
2019-02-23T15:58:02.541Z,2.33
2019-02-23T16:01:08.942Z,2.20
2019-02-23T16:04:13.717Z,2.10
2019-02-23T16:07:18.026Z,3.93
2019-02-23T16:10:22.366Z,3.40
2019-02-23T16:13:26.764Z,3.13
2019-02-23T16:16:31.084Z,2.57
2019-02-23T16:19:36.609Z,10.83
2019-02-23T16:22:41.021Z,4.03
2019-02-23T16:25:45.320Z,5.53
2019-02-23T16:28:49.980Z,4.37
2019-02-23T16:31:55.867Z,2.67
2019-02-23T16:35:00.532Z,4.90
2019-02-23T16:38:04.910Z,2.63
2019-02-23T16:41:09.201Z,2.37
2019-02-23T16:44:13.526Z,3.20
2019-02-23T16:47:17.881Z,4.90
2019-02-23T16:50:22.283Z,2.80
2019-02-23T16:53:27.074Z,2.67
2019-02-23T16:56:31.487Z,3.13
2019-02-23T16:59:35.868Z,2.87
2019-02-23T17:02:40.174Z,3.37
2019-02-23T17:05:45.277Z,3.47
2019-02-23T17:08:50.070Z,2.70
2019-02-23T17:11:54.442Z,2.47
2019-02-23T17:14:59.085Z,3.10
2019-02-23T17:18:03.890Z,2.30
2019-02-23T17:21:09.460Z,2.30
2019-02-23T17:24:16.617Z,3.00
2019-02-23T17:27:21.349Z,1.83
2019-02-23T17:30:26.099Z,2.23
2019-02-23T17:33:30.489Z,2.27
2019-02-23T17:36:36.274Z,2.77
2019-02-23T17:39:40.586Z,3.17
2019-02-23T17:42:44.882Z,5.40
2019-02-23T17:45:49.195Z,2.20
2019-02-23T17:48:53.502Z,2.23
2019-02-23T17:51:57.825Z,3.10
2019-02-23T17:55:03.607Z,2.30
2019-02-23T17:58:07.923Z,2.07
2019-02-23T18:01:14.347Z,2.47
2019-02-23T18:04:18.984Z,2.13
2019-02-23T18:07:23.353Z,2.93
2019-02-23T18:10:27.730Z,2.43
2019-02-23T18:13:32.406Z,2.27
2019-02-23T18:16:36.829Z,2.03
2019-02-23T18:19:41.207Z,2.07
2019-02-23T18:22:47.016Z,3.10
2019-02-23T18:25:51.729Z,2.33
2019-02-23T18:28:57.215Z,2.70
2019-02-23T18:32:02.206Z,1.70
2019-02-23T18:35:07.010Z,2.17
2019-02-23T18:38:11.599Z,3.07
2019-02-23T18:41:16.026Z,2.27
2019-02-23T18:44:20.705Z,2.07
2019-02-23T18:47:25.049Z,2.70
2019-02-23T18:50:29.431Z,2.47
2019-02-23T18:53:33.733Z,2.00
2019-02-23T18:56:41.348Z,2.37
2019-02-23T18:59:46.274Z,3.13
2019-02-23T19:02:51.063Z,2.47
2019-02-23T19:05:55.486Z,4.20
2019-02-23T19:08:59.818Z,3.67
2019-02-23T19:12:04.708Z,3.20
2019-02-23T19:15:10.909Z,4.43
2019-02-23T19:18:15.247Z,4.87
2019-02-23T19:21:19.579Z,3.60
2019-02-23T19:24:24.294Z,3.07
2019-02-23T19:27:29.446Z,2.73
2019-02-23T19:30:35.332Z,2.93
2019-02-23T19:33:41.221Z,2.40
2019-02-23T19:36:45.541Z,2.67
2019-02-23T19:39:50.240Z,3.40
2019-02-23T19:42:57.156Z,2.60
2019-02-23T19:46:01.587Z,3.13
2019-02-23T19:49:06.349Z,2.53
2019-02-23T19:52:10.740Z,3.50
2019-02-23T19:55:17.994Z,3.43
2019-02-23T19:58:22.405Z,2.50
2019-02-23T20:01:27.032Z,2.80
2019-02-23T20:04:31.691Z,2.70
2019-02-23T20:07:36.383Z,2.57
2019-02-23T20:10:40.772Z,2.37
2019-02-23T20:13:45.110Z,2.67
2019-02-23T20:16:49.414Z,3.07
2019-02-23T20:19:53.790Z,2.50
2019-02-23T20:22:58.213Z,2.83
2019-02-23T20:26:02.523Z,2.43
2019-02-23T20:29:09.823Z,2.17
2019-02-23T20:32:14.270Z,2.20
2019-02-23T20:35:20.957Z,2.47
2019-02-23T20:38:25.545Z,2.43
2019-02-23T20:41:29.987Z,2.73
2019-02-23T20:44:36.143Z,1.90
2019-02-23T20:47:41.688Z,2.93
2019-02-23T20:50:46.092Z,2.90
2019-02-23T20:53:50.551Z,2.77
2019-02-23T20:57:04.093Z,2.23
2019-02-23T21:00:04.508Z,2.73
2019-02-23T21:03:08.895Z,2.53
2019-02-23T21:06:13.257Z,3.03
2019-02-23T21:09:19.193Z,2.20
2019-02-23T21:12:25.042Z,2.23
2019-02-23T21:15:30.659Z,3.10
2019-02-23T21:18:36.105Z,3.03
2019-02-23T21:21:52.636Z,2.60
2019-02-23T21:24:58.146Z,2.20
2019-02-23T21:28:02.470Z,2.60
2019-02-23T21:31:06.899Z,2.87
2019-02-23T21:34:12.298Z,2.63
2019-02-23T21:37:17.179Z,2.10
2019-02-23T21:40:21.485Z,2.23
2019-02-23T21:43:26.170Z,2.33
2019-02-23T21:46:30.516Z,2.47
2019-02-23T21:49:34.834Z,2.33
2019-02-23T21:52:39.260Z,1.70
2019-02-23T21:55:43.564Z,2.00
2019-02-23T21:58:48.000Z,2.43
2019-02-23T22:01:52.361Z,2.20
2019-02-23T22:04:56.686Z,2.00
2019-02-23T22:08:01.053Z,2.23
2019-02-23T22:11:05.448Z,1.63
2019-02-23T22:14:10.605Z,3.20
2019-02-23T22:17:16.088Z,2.23
2019-02-23T22:20:20.406Z,2.30
2019-02-23T22:23:24.799Z,3.00
2019-02-23T22:26:29.173Z,2.50
2019-02-23T22:29:33.559Z,2.80
2019-02-23T22:32:37.972Z,2.50
2019-02-23T22:35:42.328Z,2.10
2019-02-23T22:38:47.068Z,2.17
2019-02-23T22:41:51.350Z,2.03
2019-02-23T22:44:55.703Z,2.27
2019-02-23T22:48:00.358Z,2.10
2019-02-23T22:51:04.666Z,2.40
2019-02-23T22:54:09.030Z,2.43
2019-02-23T22:57:13.373Z,2.80
2019-02-23T23:00:23.679Z,2.00
2019-02-23T23:03:28.026Z,2.27
2019-02-23T23:06:32.719Z,2.90
2019-02-23T23:09:37.453Z,3.77
2019-02-23T23:12:42.093Z,2.70
2019-02-23T23:15:46.479Z,2.90
2019-02-23T23:18:50.854Z,2.60
2019-02-23T23:21:55.513Z,2.47
2019-02-23T23:24:59.807Z,2.00
2019-02-23T23:28:05.244Z,2.93
2019-02-23T23:31:10.693Z,3.70
2019-02-23T23:34:15.077Z,2.50
2019-02-23T23:37:19.418Z,2.90
2019-02-23T23:40:23.676Z,3.17
2019-02-23T23:43:28.388Z,3.60
2019-02-23T23:46:32.687Z,4.37
2019-02-23T23:49:37.013Z,3.43
2019-02-23T23:52:41.294Z,2.33
2019-02-23T23:55:45.959Z,3.23
2019-02-23T23:58:50.281Z,2.73
